Bakerton, Kentucky
Current Conditions -  °F | °C
As of 4:56 PM on Thursday 27 Nov 2014 (Local Time) from KEKQ Reporting Station
Unknown Precip Unknown Precip  
Wind Chill: 24°   Ceiling: 2500
Heat Index: 31°   Visibility: 10mi
Dew Point: 25°   Wind: 7mph
Humidity: 79%   Direction: 300°WNW
Pressure: 30.42"   Gusts: NA
Location:  36.87°N, 85.31°W
Report Text: KEKQ 272256Z AUTO 30006KT 10SM UP OVC025 M01/M04 A3042 RMK AO2 T10051038 UPB56 P0000 SLP311
Loading
Personal Weather Stations






























Interactive Weather Map New forecast layout! Learn more

10-Day Weather Forecast

Advertisements
Track Severe Weather on mobile